createdAt,value
2018-05-02T00:00:39.082Z,8.98
2018-05-02T00:03:06.543Z,8.98
2018-05-02T00:05:34.019Z,9.04
2018-05-02T00:08:01.482Z,9.01
2018-05-02T00:10:28.990Z,9.02
2018-05-02T00:12:56.450Z,9.07
2018-05-02T00:15:23.927Z,9.15
2018-05-02T00:17:51.379Z,9.30
2018-05-02T00:20:18.859Z,9.38
2018-05-02T00:22:46.333Z,9.40
2018-05-02T00:25:13.998Z,9.45
2018-05-02T00:27:41.451Z,9.42
2018-05-02T00:30:08.933Z,9.40
2018-05-02T00:32:36.391Z,9.40
2018-05-02T00:35:03.846Z,9.41
2018-05-02T00:37:32.165Z,9.39
2018-05-02T00:39:59.621Z,9.31
2018-05-02T00:42:27.101Z,9.27
2018-05-02T00:44:54.563Z,9.19
2018-05-02T00:47:22.046Z,9.16
2018-05-02T00:49:49.512Z,9.16
2018-05-02T00:52:16.994Z,9.14
2018-05-02T00:54:44.445Z,9.20
2018-05-02T00:57:11.930Z,9.13
2018-05-02T00:59:39.381Z,9.15
2018-05-02T01:02:06.867Z,9.11
2018-05-02T01:04:34.322Z,9.05
2018-05-02T01:07:01.808Z,9.01
2018-05-02T01:09:29.279Z,9.02
2018-05-02T01:11:56.755Z,9.10
2018-05-02T01:14:24.212Z,9.20
2018-05-02T01:16:51.690Z,9.39
2018-05-02T01:19:19.147Z,9.48
2018-05-02T01:21:46.635Z,9.57
2018-05-02T01:24:14.219Z,9.63
2018-05-02T01:26:41.693Z,9.60
2018-05-02T01:29:09.148Z,9.56
2018-05-02T01:31:36.626Z,9.58
2018-05-02T01:34:04.083Z,9.54
2018-05-02T01:36:31.559Z,9.58
2018-05-02T01:38:59.013Z,9.63
2018-05-02T01:41:26.503Z,9.66
2018-05-02T01:43:53.962Z,9.67
2018-05-02T01:46:21.455Z,9.56
2018-05-02T01:49:00.793Z,9.52
2018-05-02T01:51:28.271Z,9.53
2018-05-02T01:53:55.732Z,9.52
2018-05-02T01:56:23.219Z,9.56
2018-05-02T01:58:50.681Z,9.54
2018-05-02T02:01:18.170Z,9.54
2018-05-02T02:03:45.618Z,9.55
2018-05-02T02:06:13.097Z,9.55
2018-05-02T02:08:40.554Z,9.61
2018-05-02T02:11:08.032Z,9.66
2018-05-02T02:13:35.488Z,9.68
2018-05-02T02:16:02.966Z,9.67
2018-05-02T02:18:30.419Z,9.68
2018-05-02T02:20:57.902Z,9.66
2018-05-02T02:23:25.383Z,9.67
2018-05-02T02:25:52.854Z,9.60
2018-05-02T02:28:20.311Z,9.54
2018-05-02T02:30:47.781Z,9.48
2018-05-02T02:33:15.263Z,9.41
2018-05-02T02:35:42.783Z,9.40
2018-05-02T02:38:10.243Z,9.25
2018-05-02T02:40:37.724Z,9.09
2018-05-02T02:43:05.178Z,8.93
2018-05-02T02:45:32.667Z,8.80
2018-05-02T02:48:00.194Z,8.67
2018-05-02T02:50:27.655Z,8.60
2018-05-02T02:52:55.134Z,8.54
2018-05-02T02:55:22.624Z,8.54
2018-05-02T02:57:50.094Z,8.58
2018-05-02T03:00:17.567Z,8.65
2018-05-02T03:02:45.055Z,8.68
2018-05-02T03:05:12.528Z,8.80
2018-05-02T03:07:40.991Z,8.97
2018-05-02T03:10:08.459Z,9.15
2018-05-02T03:12:35.938Z,9.31
2018-05-02T03:15:03.395Z,9.39
2018-05-02T03:17:30.875Z,9.42
2018-05-02T03:19:58.330Z,9.46
2018-05-02T03:22:25.810Z,9.48
2018-05-02T03:24:53.266Z,9.48
2018-05-02T03:27:20.746Z,9.53
2018-05-02T03:29:48.227Z,9.54
2018-05-02T03:32:15.798Z,9.59
2018-05-02T03:34:43.264Z,9.60
2018-05-02T03:37:10.743Z,9.64
2018-05-02T03:39:38.202Z,9.61
2018-05-02T03:42:05.666Z,9.57
2018-05-02T03:44:33.154Z,9.53
2018-05-02T03:47:00.663Z,9.58
2018-05-02T03:49:28.114Z,9.59
2018-05-02T03:51:55.575Z,9.56
2018-05-02T03:54:23.054Z,9.52
2018-05-02T03:56:50.540Z,9.54
2018-05-02T03:59:19.055Z,9.51
2018-05-02T04:01:58.390Z,9.51
2018-05-02T04:04:37.635Z,9.53
2018-05-02T04:07:14.843Z,9.55
2018-05-02T04:09:42.338Z,9.53
2018-05-02T04:12:12.352Z,9.46
2018-05-02T04:14:39.830Z,9.51
2018-05-02T04:17:07.322Z,9.58
2018-05-02T04:19:34.803Z,9.58
2018-05-02T04:22:02.269Z,9.56
2018-05-02T04:24:29.778Z,9.59
2018-05-02T04:26:57.238Z,9.64
2018-05-02T04:29:24.715Z,9.69
2018-05-02T04:31:52.170Z,9.71
2018-05-02T04:34:19.651Z,9.77
2018-05-02T04:36:47.149Z,9.86
2018-05-02T04:39:14.652Z,9.88
2018-05-02T04:41:42.115Z,9.86
2018-05-02T04:44:09.594Z,9.90
2018-05-02T04:46:37.058Z,9.95
2018-05-02T04:49:04.562Z,9.98
2018-05-02T04:51:32.031Z,10.01
2018-05-02T04:53:59.518Z,10.03
2018-05-02T04:56:27.021Z,10.00
2018-05-02T04:58:54.488Z,10.02
2018-05-02T05:01:21.981Z,10.00
2018-05-02T05:03:49.493Z,9.99
2018-05-02T05:06:16.978Z,10.00
2018-05-02T05:08:44.435Z,10.00
2018-05-02T05:11:11.919Z,10.01
2018-05-02T05:13:39.407Z,9.99
2018-05-02T05:16:06.881Z,10.01
2018-05-02T05:18:34.338Z,10.04
2018-05-02T05:21:01.814Z,10.13
2018-05-02T05:23:29.309Z,10.15
2018-05-02T05:25:56.806Z,10.20
2018-05-02T05:28:24.271Z,10.25
2018-05-02T05:30:51.794Z,10.38
2018-05-02T05:33:19.280Z,10.47
2018-05-02T05:35:47.761Z,10.55
2018-05-02T05:38:15.311Z,10.53
2018-05-02T05:40:42.780Z,10.60
2018-05-02T05:43:10.259Z,10.65
2018-05-02T05:45:37.714Z,10.68
2018-05-02T05:48:05.195Z,10.74
2018-05-02T05:50:32.660Z,10.81
2018-05-02T05:53:00.219Z,10.95
2018-05-02T05:55:27.670Z,11.10
2018-05-02T05:57:55.160Z,11.20
2018-05-02T06:00:22.619Z,11.21
2018-05-02T06:02:50.098Z,11.34
2018-05-02T06:05:17.559Z,11.30
2018-05-02T06:07:45.040Z,11.37
2018-05-02T06:10:12.503Z,11.55
2018-05-02T06:12:40.046Z,11.45
2018-05-02T06:15:07.471Z,11.59
2018-05-02T06:17:34.955Z,11.64
2018-05-02T06:20:02.419Z,11.72
2018-05-02T06:22:29.909Z,11.91
2018-05-02T06:24:57.378Z,11.99
2018-05-02T06:27:24.858Z,12.01
2018-05-02T06:29:52.326Z,11.98
2018-05-02T06:32:19.810Z,12.02
2018-05-02T06:34:47.261Z,12.20
2018-05-02T06:37:14.783Z,12.15
2018-05-02T06:39:42.247Z,12.28
2018-05-02T06:42:09.726Z,12.30
2018-05-02T06:44:38.277Z,12.40
2018-05-02T06:47:05.793Z,12.41
2018-05-02T06:49:33.283Z,12.56
2018-05-02T06:52:00.766Z,12.44
2018-05-02T06:54:28.246Z,12.57
2018-05-02T06:56:55.710Z,12.61
2018-05-02T06:59:23.220Z,12.73
2018-05-02T07:01:50.710Z,12.92
2018-05-02T07:04:18.196Z,13.21
2018-05-02T07:06:45.660Z,13.22
2018-05-02T07:09:13.139Z,13.30
2018-05-02T07:11:40.598Z,13.46
2018-05-02T07:14:08.079Z,13.65
2018-05-02T07:16:35.543Z,13.61
2018-05-02T07:19:03.115Z,13.64
2018-05-02T07:21:30.570Z,13.72
2018-05-02T07:23:58.060Z,13.57
2018-05-02T07:26:25.531Z,13.69
2018-05-02T07:28:53.043Z,13.66
2018-05-02T07:31:20.502Z,13.64
2018-05-02T07:33:48.894Z,13.59
2018-05-02T07:36:16.349Z,13.49
2018-05-02T07:38:43.864Z,13.70
2018-05-02T07:41:11.321Z,13.90
2018-05-02T07:43:38.808Z,14.09
2018-05-02T07:46:06.285Z,14.02
2018-05-02T07:48:33.776Z,14.05
2018-05-02T07:51:01.258Z,14.04
2018-05-02T07:53:28.731Z,13.96
2018-05-02T07:55:56.251Z,14.22
2018-05-02T07:58:23.716Z,14.11
2018-05-02T08:00:51.203Z,13.91
2018-05-02T08:03:18.666Z,13.89
2018-05-02T08:05:46.159Z,13.92
2018-05-02T08:08:13.648Z,13.82
2018-05-02T08:10:41.230Z,13.73
2018-05-02T08:13:08.713Z,13.69
2018-05-02T08:15:36.204Z,13.99
2018-05-02T08:18:03.695Z,13.98
2018-05-02T08:20:31.191Z,14.12
2018-05-02T08:22:58.654Z,13.94
2018-05-02T08:25:26.135Z,14.12
2018-05-02T08:27:53.604Z,14.08
2018-05-02T08:30:21.096Z,14.10
2018-05-02T08:32:48.644Z,13.99
2018-05-02T08:35:16.168Z,14.05
2018-05-02T08:37:43.626Z,13.95
2018-05-02T08:40:11.101Z,13.75
2018-05-02T08:42:38.676Z,14.20
2018-05-02T08:45:06.158Z,14.31
2018-05-02T08:47:33.639Z,14.56
2018-05-02T08:50:01.213Z,14.60
2018-05-02T08:52:28.630Z,14.69
2018-05-02T08:54:56.117Z,15.12
2018-05-02T08:57:23.628Z,15.28
2018-05-02T08:59:51.099Z,15.51
2018-05-02T09:02:18.638Z,15.80
2018-05-02T09:04:46.093Z,15.73
2018-05-02T09:07:13.596Z,15.50
2018-05-02T09:09:41.084Z,15.64
2018-05-02T09:12:08.579Z,15.59
2018-05-02T09:14:36.089Z,15.91
2018-05-02T09:17:03.574Z,16.01
2018-05-02T09:19:31.058Z,15.99
2018-05-02T09:21:58.542Z,16.03
2018-05-02T09:24:26.008Z,16.10
2018-05-02T09:26:53.507Z,16.11
2018-05-02T09:29:21.019Z,16.35
2018-05-02T09:31:48.522Z,16.41
2018-05-02T09:34:16.171Z,16.49
2018-05-02T09:36:43.674Z,16.87
2018-05-02T09:39:11.159Z,17.26
2018-05-02T09:41:38.648Z,17.14
2018-05-02T09:44:06.129Z,16.66
2018-05-02T09:46:33.612Z,16.53
2018-05-02T09:49:01.144Z,16.30
2018-05-02T09:51:28.631Z,16.66
2018-05-02T09:53:56.098Z,16.73
2018-05-02T09:56:23.586Z,16.80
2018-05-02T09:58:51.047Z,17.11
2018-05-02T10:01:18.542Z,17.12
2018-05-02T10:03:46.002Z,17.72
2018-05-02T10:06:13.470Z,17.80
2018-05-02T10:08:40.971Z,18.21
2018-05-02T10:11:08.430Z,18.28
2018-05-02T10:13:35.927Z,18.03
2018-05-02T10:16:03.425Z,18.06
2018-05-02T10:18:31.020Z,18.21
2018-05-02T10:20:58.395Z,17.82
2018-05-02T10:23:25.879Z,18.25
2018-05-02T10:25:53.381Z,18.52
2018-05-02T10:28:20.895Z,18.49
2018-05-02T10:30:48.374Z,18.47
2018-05-02T10:33:15.883Z,18.32
2018-05-02T10:35:43.354Z,18.55
2018-05-02T10:38:10.875Z,19.39
2018-05-02T10:40:38.339Z,19.73
2018-05-02T10:43:05.865Z,19.83
2018-05-02T10:45:33.316Z,20.32
2018-05-02T10:48:00.844Z,20.54
2018-05-02T10:50:28.332Z,22.06
2018-05-02T10:52:55.813Z,23.30
2018-05-02T10:55:23.325Z,23.18
2018-05-02T10:57:50.811Z,23.21
2018-05-02T11:00:18.334Z,22.35
2018-05-02T11:02:45.987Z,20.99
2018-05-02T11:05:13.451Z,20.05
2018-05-02T11:07:40.911Z,20.86
2018-05-02T11:10:08.393Z,21.75
2018-05-02T11:12:36.148Z,22.47
2018-05-02T11:15:03.642Z,24.41
2018-05-02T11:17:31.106Z,26.22
2018-05-02T11:19:58.617Z,26.64
2018-05-02T11:22:26.078Z,27.19
2018-05-02T11:24:53.563Z,26.17
2018-05-02T11:27:21.024Z,25.51
2018-05-02T11:29:48.507Z,25.58
2018-05-02T11:32:15.974Z,25.33
2018-05-02T11:34:43.477Z,24.79
2018-05-02T11:37:10.951Z,23.66
2018-05-02T11:39:38.429Z,23.79
2018-05-02T11:42:05.890Z,23.46
2018-05-02T11:44:33.382Z,24.04
2018-05-02T11:47:00.858Z,24.17
2018-05-02T11:49:28.367Z,23.26
2018-05-02T11:51:55.845Z,24.80
2018-05-02T11:54:23.328Z,25.06
2018-05-02T11:56:50.799Z,24.47
2018-05-02T11:59:18.289Z,23.01
2018-05-02T12:01:45.756Z,23.06
2018-05-02T12:04:13.239Z,23.54
2018-05-02T12:06:40.700Z,24.89
2018-05-02T12:09:08.180Z,25.28
2018-05-02T12:11:35.642Z,24.69
2018-05-02T12:14:03.146Z,27.84
2018-05-02T12:16:30.611Z,30.11
2018-05-02T12:18:58.105Z,29.30
2018-05-02T12:21:25.582Z,27.99
2018-05-02T12:23:53.074Z,28.34
2018-05-02T12:26:20.533Z,26.70
2018-05-02T12:28:48.022Z,26.21
2018-05-02T12:31:16.093Z,25.44
2018-05-02T12:33:43.555Z,23.67
2018-05-02T12:36:11.079Z,23.66
2018-05-02T12:38:38.545Z,23.25
2018-05-02T12:41:06.030Z,23.18
2018-05-02T12:43:33.505Z,23.42
2018-05-02T12:46:01.001Z,22.92
2018-05-02T12:48:28.474Z,23.95
2018-05-02T12:50:55.968Z,24.79
2018-05-02T12:53:23.438Z,25.84
2018-05-02T12:55:50.922Z,27.17
2018-05-02T12:58:18.383Z,28.77
2018-05-02T13:00:45.867Z,28.13
2018-05-02T13:03:13.321Z,28.79
2018-05-02T13:05:40.806Z,27.88
2018-05-02T13:08:08.338Z,26.90
2018-05-02T13:10:35.766Z,26.90
2018-05-02T13:13:03.238Z,28.91
2018-05-02T13:15:30.761Z,31.23
2018-05-02T13:17:58.226Z,31.72
2018-05-02T13:20:25.752Z,31.84
2018-05-02T13:22:56.009Z,30.24
2018-05-02T13:25:23.635Z,28.86
2018-05-02T13:27:51.102Z,28.77
2018-05-02T13:30:18.601Z,30.58
2018-05-02T13:32:46.084Z,30.95
2018-05-02T13:35:13.562Z,29.77
2018-05-02T13:37:41.535Z,29.32
2018-05-02T13:40:09.491Z,31.82
2018-05-02T13:42:37.093Z,32.00
2018-05-02T13:45:04.578Z,32.16
2018-05-02T13:47:32.058Z,32.16
2018-05-02T13:49:59.531Z,31.14
2018-05-02T13:52:27.024Z,30.19
2018-05-02T13:54:54.512Z,29.31
2018-05-02T13:57:22.000Z,28.92
2018-05-02T13:59:49.494Z,29.47
2018-05-02T14:02:16.981Z,28.01
2018-05-02T14:04:44.438Z,28.34
2018-05-02T14:07:11.971Z,29.12
2018-05-02T14:09:39.454Z,28.93
2018-05-02T14:12:06.944Z,27.92
2018-05-02T14:14:34.413Z,28.86
2018-05-02T14:17:01.918Z,28.91
2018-05-02T14:19:29.392Z,28.61
2018-05-02T14:21:56.899Z,28.22
2018-05-02T14:24:24.438Z,27.43
2018-05-02T14:26:52.012Z,28.71
2018-05-02T14:29:19.474Z,28.10
2018-05-02T14:31:46.978Z,28.96
2018-05-02T14:34:14.513Z,29.29
2018-05-02T14:36:42.035Z,28.93
2018-05-02T14:39:09.511Z,29.67
2018-05-02T14:41:37.038Z,29.67
2018-05-02T14:44:04.627Z,27.45
2018-05-02T14:46:32.108Z,27.36
2018-05-02T14:48:59.668Z,27.37
2018-05-02T14:51:27.214Z,27.85
2018-05-02T14:53:54.714Z,27.32
2018-05-02T14:56:22.337Z,26.92
2018-05-02T14:58:49.858Z,26.18
2018-05-02T15:01:17.322Z,25.68
2018-05-02T15:03:44.826Z,25.06
2018-05-02T15:06:12.363Z,24.56
2018-05-02T15:08:39.855Z,24.12
2018-05-02T15:11:07.341Z,24.16
2018-05-02T15:13:34.823Z,23.91
2018-05-02T15:16:02.292Z,24.19
2018-05-02T15:18:29.874Z,23.72
2018-05-02T15:20:57.373Z,23.20
2018-05-02T15:23:24.893Z,23.26
2018-05-02T15:25:52.363Z,23.46
2018-05-02T15:28:19.843Z,22.80
2018-05-02T15:30:47.367Z,22.30
2018-05-02T15:33:14.923Z,22.15
2018-05-02T15:35:42.411Z,22.18
2018-05-02T15:38:09.895Z,21.76
2018-05-02T15:40:37.494Z,21.42
2018-05-02T15:43:08.426Z,21.32
2018-05-02T15:45:35.947Z,21.15
2018-05-02T15:48:03.512Z,20.90
2018-05-02T15:50:39.517Z,20.41
2018-05-02T15:53:08.250Z,20.23
2018-05-02T15:55:35.834Z,20.31
2018-05-02T15:58:03.592Z,19.87
2018-05-02T16:00:31.244Z,19.84
2018-05-02T16:03:07.458Z,19.67
2018-05-02T16:05:35.254Z,19.59
2018-05-02T16:08:02.826Z,19.47
2018-05-02T16:12:59.645Z,19.36
2018-05-02T16:20:54.905Z,19.37
2018-05-02T16:23:22.495Z,19.52
2018-05-02T16:26:52.940Z,19.38
2018-05-02T16:29:21.443Z,19.31
2018-05-02T16:31:53.719Z,19.07
2018-05-02T16:34:21.274Z,18.95
2018-05-02T16:36:48.901Z,18.67
2018-05-02T16:39:16.591Z,18.68
2018-05-02T16:41:47.566Z,18.49
2018-05-02T16:44:20.840Z,18.52
2018-05-02T16:46:48.399Z,18.44
2018-05-02T16:49:16.060Z,18.43
2018-05-02T16:51:43.649Z,18.32
2018-05-02T16:54:11.181Z,18.19
2018-05-02T16:56:38.797Z,18.06
2018-05-02T16:59:06.520Z,17.91
2018-05-02T17:01:35.394Z,17.89
2018-05-02T17:04:03.138Z,17.97
2018-05-02T17:06:33.291Z,17.77
2018-05-02T17:09:00.871Z,17.58
2018-05-02T17:11:37.659Z,17.58
2018-05-02T17:27:10.464Z,17.44
2018-05-02T17:29:38.470Z,17.39
2018-05-02T17:32:06.077Z,17.33
2018-05-02T17:34:33.654Z,17.21
2018-05-02T17:37:01.461Z,17.22
2018-05-02T17:39:29.493Z,17.22
2018-05-02T17:41:59.190Z,17.21
2018-05-02T17:44:26.860Z,17.20
2018-05-02T17:46:54.382Z,17.12
2018-05-02T17:49:22.749Z,17.04
2018-05-02T17:51:50.314Z,17.03
2018-05-02T17:54:22.699Z,17.02
2018-05-02T17:57:01.470Z,17.04
2018-05-02T17:59:29.044Z,16.99
2018-05-02T18:02:18.717Z,16.98
2018-05-02T18:04:46.312Z,16.94
2018-05-02T18:07:13.911Z,16.86
2018-05-02T18:09:41.509Z,16.79
2018-05-02T18:12:08.983Z,16.76
2018-05-02T18:14:36.688Z,16.72
2018-05-02T18:17:04.471Z,16.65
2018-05-02T18:19:32.011Z,16.61
2018-05-02T18:22:13.695Z,16.48
2018-05-02T18:24:43.431Z,16.29
2018-05-02T18:27:16.120Z,16.14
2018-05-02T18:29:43.663Z,15.96
2018-05-02T18:32:22.379Z,15.84
2018-05-02T18:34:50.729Z,15.81
2018-05-02T18:37:18.433Z,15.79
2018-05-02T18:39:45.935Z,15.73
2018-05-02T18:42:19.164Z,15.68
2018-05-02T18:44:46.691Z,15.67
2018-05-02T18:47:14.306Z,15.65
2018-05-02T18:49:41.893Z,15.67
2018-05-02T18:52:09.491Z,15.72
2018-05-02T18:54:37.080Z,15.78
2018-05-02T18:57:04.621Z,15.76
2018-05-02T18:59:32.660Z,15.81
2018-05-02T19:02:00.593Z,15.89
2018-05-02T19:04:32.177Z,15.93
2018-05-02T19:06:59.855Z,15.91
2018-05-02T19:09:27.374Z,15.86
2018-05-02T19:12:01.017Z,15.86
2018-05-02T19:14:28.612Z,15.79
2018-05-02T19:16:56.292Z,15.76
2018-05-02T21:05:39.948Z,14.51
2018-05-02T21:08:07.466Z,14.49
2018-05-02T21:10:34.934Z,14.49
2018-05-02T21:13:02.434Z,14.49
2018-05-02T21:15:29.896Z,14.50
2018-05-02T21:17:57.391Z,14.49
2018-05-02T21:20:24.850Z,14.48
2018-05-02T21:22:52.310Z,14.47
2018-05-02T21:25:19.791Z,14.46
2018-05-02T21:27:47.265Z,14.46
2018-05-02T21:30:14.822Z,14.43
2018-05-02T21:32:42.282Z,14.38
2018-05-02T21:35:09.776Z,14.33
2018-05-02T21:37:37.232Z,14.31
2018-05-02T21:40:04.706Z,14.28
2018-05-02T21:42:32.163Z,14.21
2018-05-02T21:44:59.642Z,14.19
2018-05-02T21:47:27.098Z,14.13
2018-05-02T21:49:54.583Z,14.01
2018-05-02T21:52:22.061Z,13.81
2018-05-02T21:54:49.539Z,13.59
2018-05-02T21:57:18.046Z,13.52
2018-05-02T21:59:45.588Z,13.41
2018-05-02T22:02:13.019Z,13.31
2018-05-02T22:04:40.498Z,13.31
2018-05-02T22:07:07.958Z,13.27
2018-05-02T22:09:35.435Z,13.28
2018-05-02T22:12:02.894Z,13.29
2018-05-02T22:14:30.370Z,13.26
2018-05-02T22:16:57.826Z,13.24
2018-05-02T22:19:25.310Z,13.21
2018-05-02T22:21:52.774Z,13.14
2018-05-02T22:24:20.254Z,13.06
2018-05-02T22:26:47.714Z,12.98
2018-05-02T22:29:15.201Z,12.93
2018-05-02T22:31:42.659Z,12.86
2018-05-02T22:34:10.150Z,12.80
2018-05-02T22:36:37.862Z,12.77
2018-05-02T22:39:05.350Z,12.72
2018-05-02T22:41:32.811Z,12.67
2018-05-02T22:44:00.270Z,12.60
2018-05-02T22:46:27.767Z,12.51
2018-05-02T22:48:56.162Z,12.40
2018-05-02T22:51:23.662Z,12.31
2018-05-02T22:53:51.113Z,12.25
2018-05-02T22:56:18.594Z,12.20
2018-05-02T22:58:46.076Z,12.17
2018-05-02T23:01:13.558Z,12.14
2018-05-02T23:03:41.019Z,12.12
2018-05-02T23:06:08.527Z,12.06
2018-05-02T23:08:35.992Z,12.04
2018-05-02T23:11:03.505Z,11.96
2018-05-02T23:13:30.986Z,11.96
2018-05-02T23:15:58.474Z,11.91
2018-05-02T23:18:25.986Z,11.83
2018-05-02T23:20:53.445Z,11.84
2018-05-02T23:23:20.906Z,11.85
2018-05-02T23:25:48.410Z,11.88
2018-05-02T23:28:15.867Z,11.91
2018-05-02T23:30:43.345Z,11.86
2018-05-02T23:33:10.983Z,11.75
2018-05-02T23:35:38.569Z,11.61
2018-05-02T23:38:06.047Z,11.62
2018-05-02T23:40:33.543Z,11.66
2018-05-02T23:43:01.030Z,11.68
2018-05-02T23:45:28.522Z,11.66
2018-05-02T23:47:56.098Z,11.62
2018-05-02T23:50:23.507Z,11.60
2018-05-02T23:52:51.002Z,11.61
2018-05-02T23:55:18.509Z,11.67
2018-05-02T23:57:46.019Z,11.69
